Time;durP1;ratioP1;P1;durP2;ratioP2;P2;SDS_P1;SDS_P2;PMS_P1;PMS_P2;Temp;Humidity;BMP_temperature;BMP_pressure;BME280_temperature;BME280_humidity;BME280_pressure;Samples;Min_cycle;Max_cycle;Signal;HPM_P1;HPM_P2
2022/10/19 00:01:25;;;;;;;10.27;2.50;;;;;;;22.76;51.35;98611.47;4873207;29;20548;-68
2022/10/19 00:04:08;;;;;;;5.22;2.63;;;;;;;22.78;51.01;98614.75;4871979;29;20159;-69
2022/10/19 00:06:56;;;;;;;6.30;2.38;;;;;;;22.73;51.64;98612.88;4873826;29;20053;-69
2022/10/19 00:09:45;;;;;;;6.75;2.67;;;;;;;22.70;51.60;98608.00;4873160;29;20105;-69
2022/10/19 00:12:34;;;;;;;5.03;2.10;;;;;;;22.71;51.39;98615.09;4859160;29;20044;-69
2022/10/19 00:15:30;;;;;;;6.22;2.92;;;;;;;22.71;52.50;98615.09;4872588;29;20657;-69
2022/10/19 00:18:07;;;;;;;6.40;2.22;;;;;;;22.68;51.29;98619.25;4885359;29;20057;-69
2022/10/19 00:21:03;;;;;;;4.18;2.13;;;;;;;22.67;52.06;98622.28;4868259;29;20059;-68
2022/10/19 00:23:45;;;;;;;6.65;2.40;;;;;;;22.67;52.30;98631.28;4862301;29;20049;-69
2022/10/19 00:26:34;;;;;;;5.43;2.35;;;;;;;22.54;52.22;98632.00;4874577;29;20041;-68
2022/10/19 00:29:19;;;;;;;4.97;2.67;;;;;;;22.44;52.94;98641.19;4872280;29;20052;-69
2022/10/19 00:32:07;;;;;;;6.43;3.78;;;;;;;22.62;52.84;98636.00;4872414;29;20049;-69
2022/10/19 00:34:50;;;;;;;5.75;3.17;;;;;;;22.59;53.05;98639.34;4891188;29;20136;-69
2022/10/19 00:37:39;;;;;;;6.00;2.72;;;;;;;22.59;53.09;98634.69;4891917;29;20156;-69
2022/10/19 00:40:21;;;;;;;4.35;2.53;;;;;;;22.60;52.96;98644.50;4891841;29;20067;-69
2022/10/19 00:43:23;;;;;;;5.90;2.88;;;;;;;22.65;52.03;98644.44;4873140;29;20121;-69
2022/10/19 00:46:04;;;;;;;5.40;2.65;;;;;;;22.52;52.34;98645.16;4872592;29;20045;-70
2022/10/19 00:48:59;;;;;;;8.57;2.92;;;;;;;22.54;52.61;98653.91;4872642;29;20109;-69
2022/10/19 00:51:54;;;;;;;7.82;3.20;;;;;;;22.56;52.63;98657.16;4872212;29;20060;-68
2022/10/19 00:54:38;;;;;;;11.85;3.60;;;;;;;22.60;51.88;98647.25;4872686;29;20053;-68
2022/10/19 00:57:29;;;;;;;9.43;3.90;;;;;;;22.63;52.19;98660.34;4862011;29;20052;-69
2022/10/19 01:00:12;;;;;;;9.68;3.33;;;;;;;22.57;52.41;98657.97;4869176;29;20052;-69
2022/10/19 01:03:04;;;;;;;10.60;3.28;;;;;;;22.63;52.10;98662.28;4843691;29;20121;-68
2022/10/19 01:05:51;;;;;;;6.50;2.88;;;;;;;22.63;51.27;98654.88;4873375;29;20037;-69
2022/10/19 01:08:42;;;;;;;7.70;3.60;;;;;;;22.67;52.18;98664.09;4855580;29;20064;-68
2022/10/19 01:11:57;;;;;;;14.23;3.20;;;;;;;22.59;52.89;98667.50;4845036;29;20548;-69
2022/10/19 01:15:13;;;;;;;8.95;2.85;;;;;;;22.58;53.42;98668.59;4839299;29;20136;-68
2022/10/19 01:18:26;;;;;;;12.07;4.25;;;;;;;22.50;52.59;98672.00;4853040;29;20506;-68
2022/10/19 01:21:30;;;;;;;13.48;4.13;;;;;;;22.69;50.91;98674.75;4857426;29;20563;-68
2022/10/19 01:24:37;;;;;;;7.50;3.60;;;;;;;22.45;51.35;98672.91;4869834;29;20057;-68
2022/10/19 01:27:45;;;;;;;6.70;3.25;;;;;;;22.60;52.10;98684.72;4856468;29;20106;-68
2022/10/19 01:31:05;;;;;;;7.68;3.50;;;;;;;22.69;51.50;98680.22;4874262;29;20045;-68
2022/10/19 01:34:39;;;;;;;14.05;3.50;;;;;;;22.64;52.12;98688.50;4868706;29;20520;-69
2022/10/19 01:37:38;;;;;;;;;;;;;;;22.72;52.74;98687.88;4872876;29;20065;-68
2022/10/19 01:40:45;;;;;;;11.63;3.30;;;;;;;22.62;52.98;98697.03;4873403;29;19938;-69
2022/10/19 01:44:10;;;;;;;8.77;3.60;;;;;;;22.81;51.92;98707.16;4877587;29;20044;-69
2022/10/19 01:46:57;;;;;;;10.65;3.90;;;;;;;22.96;51.36;98698.72;4878278;29;20048;-69
2022/10/19 01:50:04;;;;;;;13.13;5.13;;;;;;;22.71;52.59;98701.81;4877986;29;20364;-69
2022/10/19 01:52:49;;;;;;;14.85;5.65;;;;;;;22.76;50.62;98704.50;4874815;29;20048;-69
2022/10/19 01:55:44;;;;;;;12.45;6.18;;;;;;;22.80;51.21;98706.34;4891154;29;20048;-69
2022/10/19 01:58:33;;;;;;;9.70;5.07;;;;;;;22.96;52.12;98711.59;4870575;29;20064;-69
2022/10/19 02:01:45;;;;;;;14.43;5.85;;;;;;;22.98;50.39;98712.13;4870215;29;20388;-68
2022/10/19 02:04:50;;;;;;;21.15;6.63;;;;;;;23.01;53.61;98708.81;4872668;29;20053;-69
2022/10/19 02:07:38;;;;;;;11.73;5.43;;;;;;;23.01;53.24;98714.28;4872413;29;20060;-69
2022/10/19 02:10:34;;;;;;;16.85;6.30;;;;;;;23.19;52.08;98718.94;4814669;29;20139;-70
2022/10/19 02:13:23;;;;;;;15.48;6.47;;;;;;;23.11;54.27;98722.34;4843525;29;20072;-68
2022/10/19 02:16:19;;;;;;;19.48;8.15;;;;;;;23.22;50.49;98723.84;4856236;29;20053;-69
2022/10/19 02:19:16;;;;;;;26.75;9.88;;;;;;;23.23;50.57;98728.22;4872204;29;20053;-69
2022/10/19 02:22:10;;;;;;;23.95;8.68;;;;;;;23.38;53.12;98729.88;4841033;29;20041;-69
2022/10/19 02:25:06;;;;;;;21.80;8.48;;;;;;;23.32;55.23;98728.34;4840821;29;20442;-69
2022/10/19 02:27:53;;;;;;;17.48;9.52;;;;;;;23.52;50.90;98732.69;4881322;29;20321;-69
2022/10/19 02:30:47;;;;;;;23.55;12.18;;;;;;;23.56;50.68;98735.63;4874516;29;20071;-69
2022/10/19 02:33:36;;;;;;;26.42;11.82;;;;;;;23.64;51.17;98740.44;4871813;29;20087;-69
2022/10/19 02:36:32;;;;;;;24.02;12.23;;;;;;;23.72;52.63;98741.69;4875280;29;20049;-69
2022/10/19 02:39:27;;;;;;;30.25;12.55;;;;;;;23.89;51.03;98747.44;4875253;29;20085;-69
2022/10/19 02:42:50;;;;;;;25.90;12.80;;;;;;;23.81;51.02;98745.41;4875321;29;20124;-69
2022/10/19 02:45:58;;;;;;;31.42;14.25;;;;;;;24.07;51.50;98753.16;4893888;29;20049;-69
2022/10/19 02:48:53;;;;;;;31.38;13.70;;;;;;;23.93;51.44;98764.91;4878320;29;20059;-69
2022/10/19 02:52:03;;;;;;;35.63;14.63;;;;;;;24.18;51.17;98760.06;4894311;29;20115;-69
2022/10/19 02:54:55;;;;;;;32.42;16.13;;;;;;;23.94;52.41;98763.81;4863142;29;20052;-69
2022/10/19 02:57:42;;;;;;;36.08;15.55;;;;;;;24.34;51.84;98758.69;4858967;29;20851;-69
2022/10/19 03:00:41;;;;;;;33.75;15.57;;;;;;;24.46;51.88;98763.66;4874847;29;20385;-69
2022/10/19 03:03:52;;;;;;;35.22;15.63;;;;;;;24.39;52.66;98772.28;4845285;29;20069;-69
2022/10/19 03:06:37;;;;;;;40.78;17.05;;;;;;;24.42;53.75;98781.84;4858455;29;20056;-69
2022/10/19 03:09:34;;;;;;;38.90;16.88;;;;;;;24.72;52.80;98785.13;4859651;29;20563;-70
2022/10/19 03:12:21;;;;;;;44.38;17.95;;;;;;;24.54;52.34;98784.91;4841788;29;20061;-69
2022/10/19 03:15:23;;;;;;;46.10;17.08;;;;;;;24.34;52.79;98794.34;4856157;29;20066;-69
2022/10/19 03:18:19;;;;;;;33.83;16.15;;;;;;;24.92;52.56;98805.84;4830815;29;20046;-69
2022/10/19 03:21:19;;;;;;;44.10;18.23;;;;;;;24.98;51.81;98807.38;4867523;29;20060;-69
2022/10/19 03:24:07;;;;;;;29.20;15.85;;;;;;;25.02;52.09;98805.63;4875012;29;20049;-69
2022/10/19 03:27:12;;;;;;;30.23;14.52;;;;;;;25.33;51.94;98805.00;4850690;29;20076;-68
2022/10/19 03:30:22;;;;;;;25.98;13.95;;;;;;;25.56;52.97;98809.38;4805021;29;20062;-70
2022/10/19 03:33:22;;;;;;;26.98;14.02;;;;;;;25.65;51.06;98803.97;4795420;29;20066;-72
2022/10/19 03:36:34;;;;;;;30.45;14.65;;;;;;;25.63;51.56;98811.72;4820163;29;20053;-70
2022/10/19 03:39:22;;;;;;;27.95;13.02;;;;;;;25.74;51.11;98813.09;4802707;29;20069;-70
2022/10/19 03:42:18;;;;;;;26.65;13.82;;;;;;;25.71;51.94;98821.16;4827290;29;20058;-72
2022/10/19 03:45:11;;;;;;;25.50;13.43;;;;;;;25.89;51.35;98817.41;4806774;29;20042;-71
2022/10/19 03:48:13;;;;;;;27.10;13.05;;;;;;;26.25;51.29;98823.97;4807734;29;20400;-71
2022/10/19 03:51:09;;;;;;;30.55;13.88;;;;;;;26.07;51.34;98828.56;4835135;29;20058;-70
2022/10/19 03:54:19;;;;;;;26.92;13.60;;;;;;;26.16;51.62;98830.22;4822035;29;20138;-70
2022/10/19 03:57:03;;;;;;;28.70;14.15;;;;;;;26.54;50.05;98834.47;4834632;29;20042;-71
2022/10/19 04:00:00;;;;;;;26.25;14.85;;;;;;;26.63;50.81;98829.03;4834773;29;20634;-71
2022/10/19 04:02:47;;;;;;;32.05;14.77;;;;;;;26.89;49.26;98826.38;4826411;29;20103;-69
2022/10/19 04:05:38;;;;;;;27.38;15.88;;;;;;;27.30;50.68;98836.22;4796250;29;20058;-72
2022/10/19 04:08:43;;;;;;;;;;;;;;;27.61;49.89;98840.78;4818550;29;20049;-71
2022/10/19 04:11:42;;;;;;;32.38;17.15;;;;;;;27.01;49.92;98848.59;4833046;29;20373;-72
2022/10/19 04:14:43;;;;;;;36.97;16.50;;;;;;;27.75;50.67;98846.94;4806914;29;20101;-72
2022/10/19 04:17:40;;;;;;;38.13;17.88;;;;;;;27.77;48.62;98838.38;4852576;29;20136;-73
2022/10/19 04:20:34;;;;;;;34.92;18.40;;;;;;;28.01;49.40;98837.88;4862233;29;20064;-71
2022/10/19 04:23:23;;;;;;;35.10;17.27;;;;;;;28.57;48.15;98837.94;4864274;29;20053;-73
2022/10/19 04:26:16;;;;;;;40.58;16.40;;;;;;;28.95;47.66;98843.44;4847492;29;20057;-70
2022/10/19 04:29:04;;;;;;;33.35;18.30;;;;;;;28.97;45.69;98843.09;4863648;29;20076;-73
2022/10/19 04:31:59;;;;;;;35.75;19.38;;;;;;;28.73;45.11;98844.50;4832387;29;20465;-71
2022/10/19 04:34:47;;;;;;;43.42;20.30;;;;;;;29.19;45.31;98844.78;4849304;29;20056;-71
2022/10/19 04:37:48;;;;;;;51.13;20.95;;;;;;;29.63;44.81;98839.75;4855052;29;20060;-71
2022/10/19 04:40:45;;;;;;;45.67;23.20;;;;;;;29.91;45.32;98840.03;4855768;29;20053;-72
2022/10/19 04:43:41;;;;;;;43.50;22.30;;;;;;;30.07;43.48;98842.97;4845977;29;20575;-71
2022/10/19 04:46:31;;;;;;;40.25;21.85;;;;;;;30.34;45.57;98846.31;4871622;29;20135;-71
2022/10/19 04:49:23;;;;;;;48.72;22.70;;;;;;;30.58;44.66;98846.38;4870084;29;20052;-76
2022/10/19 04:52:24;;;;;;;43.10;20.92;;;;;;;30.68;47.61;98845.09;4851525;29;20057;-73
2022/10/19 04:55:12;;;;;;;51.20;23.95;;;;;;;30.95;43.18;98856.69;4847417;29;20050;-74
2022/10/19 04:58:27;;;;;;;59.50;23.70;;;;;;;30.69;44.65;98852.28;4834893;29;20054;-72
2022/10/19 05:01:31;;;;;;;45.95;24.15;;;;;;;30.88;44.49;98848.09;4849460;29;20118;-73
2022/10/19 05:04:41;;;;;;;56.33;24.63;;;;;;;31.32;41.70;98851.09;4818776;29;20053;-72
2022/10/19 05:07:32;;;;;;;54.13;27.42;;;;;;;31.31;42.49;98855.84;4850737;29;20054;-72
2022/10/19 05:10:48;;;;;;;48.25;27.42;;;;;;;31.55;43.68;98848.69;4850014;29;20054;-71
2022/10/19 05:13:59;;;;;;;67.17;29.77;;;;;;;31.60;41.84;98843.69;4552366;27;13783017;-71
2022/10/19 05:16:59;;;;;;;50.88;28.38;;;;;;;31.73;43.64;98847.22;5014830;28;20352;-70
2022/10/19 05:19:50;;;;;;;58.15;31.35;;;;;;;31.88;42.19;98842.09;5006446;28;20049;-72
2022/10/19 05:23:07;;;;;;;67.65;29.98;;;;;;;31.55;41.92;98835.63;5022002;28;20164;-70
2022/10/19 05:26:00;;;;;;;62.65;30.85;;;;;;;31.95;40.68;98843.09;4980443;28;20106;-70
2022/10/19 05:29:08;;;;;;;63.83;33.65;;;;;;;31.86;41.86;98847.19;5013620;28;20564;-71
2022/10/19 05:31:47;;;;;;;64.75;32.15;;;;;;;32.07;40.78;98842.28;5038074;28;20148;-70
2022/10/19 05:34:42;;;;;;;58.78;32.30;;;;;;;32.27;39.80;98842.38;5022159;28;20049;-70
2022/10/19 05:37:35;;;;;;;53.80;33.78;;;;;;;31.94;39.52;98849.00;5004247;28;20161;-72
2022/10/19 05:40:36;;;;;;;50.17;32.13;;;;;;;32.26;41.02;98838.81;5008984;28;20046;-70
2022/10/19 05:43:37;;;;;;;69.35;33.35;;;;;;;32.03;41.76;98837.78;5027511;28;20045;-70
2022/10/19 05:46:38;;;;;;;65.60;34.15;;;;;;;32.30;42.99;98845.28;5009859;28;20045;-70
2022/10/19 05:49:43;;;;;;;69.10;32.08;;;;;;;32.60;42.98;98841.28;5042329;28;20654;-71
2022/10/19 05:52:53;;;;;;;57.05;32.78;;;;;;;33.00;39.46;98832.75;5041122;28;20057;-74
2022/10/19 05:55:45;;;;;;;70.27;33.47;;;;;;;32.62;39.44;98828.66;5040435;28;20049;-71
2022/10/19 05:59:09;;;;;;;59.28;30.88;;;;;;;32.68;40.48;98827.22;4827187;28;10000718;-73
2022/10/19 06:02:39;;;;;;;68.55;32.50;;;;;;;32.46;43.44;98825.03;5016182;28;20307;-75
2022/10/19 06:05:43;;;;;;;56.22;28.70;;;;;;;32.90;38.53;98822.19;4990889;28;20045;-74
2022/10/19 06:08:49;;;;;;;46.65;26.80;;;;;;;32.37;39.95;98814.91;5015003;28;20705;-70
2022/10/19 06:11:46;;;;;;;50.38;26.52;;;;;;;32.53;41.75;98814.09;5044740;28;20152;-74
2022/10/19 06:15:03;;;;;;;46.30;26.30;;;;;;;32.62;42.29;98806.44;4759322;28;10000484;-71
2022/10/19 06:18:07;;;;;;;46.42;25.05;;;;;;;32.74;40.04;98803.53;5039751;28;20282;-71
2022/10/19 06:21:11;;;;;;;43.60;24.13;;;;;;;32.90;42.29;98797.16;5026873;28;20140;-73
2022/10/19 06:24:06;;;;;;;47.60;25.20;;;;;;;32.43;38.94;98796.00;5005308;28;20041;-71
2022/10/19 06:27:05;;;;;;;35.88;22.67;;;;;;;32.60;40.70;98791.28;4997515;28;20045;-69
2022/10/19 06:30:06;;;;;;;48.28;23.10;;;;;;;32.41;40.60;98795.56;4997809;28;20049;-69
2022/10/19 06:33:10;;;;;;;41.45;21.90;;;;;;;32.76;37.43;98781.75;5018834;28;20493;-70
2022/10/19 06:36:16;;;;;;;40.88;21.75;;;;;;;32.98;36.52;98779.50;5008776;28;20049;-71
2022/10/19 06:39:14;;;;;;;55.85;22.80;;;;;;;33.37;37.23;98779.56;5010206;28;20073;-70
2022/10/19 06:42:16;;;;;;;38.40;21.67;;;;;;;33.16;38.63;98775.16;5009727;28;20055;-66
2022/10/19 06:45:17;;;;;;;41.78;21.02;;;;;;;33.10;39.05;98778.56;5012983;28;20045;-69
2022/10/19 06:48:11;;;;;;;37.75;21.38;;;;;;;32.97;38.14;98777.88;4996765;28;20504;-69
2022/10/19 06:51:20;;;;;;;39.80;20.88;;;;;;;33.21;41.15;98770.47;4991605;28;20110;-68
2022/10/19 06:54:15;;;;;;;45.15;20.90;;;;;;;33.13;39.01;98766.72;5007239;28;20049;-67
2022/10/19 06:57:30;;;;;;;;;;;;;;;33.41;36.57;98755.41;5002966;28;20042;-70
2022/10/19 07:00:37;;;;;;;37.90;21.90;;;;;;;33.39;37.19;98754.97;5002811;28;19929;-73
2022/10/19 07:03:35;;;;;;;48.38;21.10;;;;;;;33.39;33.48;98748.59;4990964;28;20046;-74
2022/10/19 07:06:31;;;;;;;37.97;19.95;;;;;;;33.06;35.55;98745.13;5023287;28;20045;-72
2022/10/19 07:09:42;;;;;;;36.20;20.45;;;;;;;32.83;36.33;98750.56;5023856;28;20052;-69
2022/10/19 07:13:08;;;;;;;40.72;18.95;;;;;;;33.00;35.07;98734.63;5013337;28;20168;-70
2022/10/19 07:16:25;;;;;;;42.42;21.17;;;;;;;33.33;38.05;98726.63;5022000;28;20049;-69
2022/10/19 07:19:24;;;;;;;36.92;19.63;;;;;;;32.52;37.23;98727.19;5025127;28;20051;-70
2022/10/19 07:22:25;;;;;;;38.85;20.15;;;;;;;33.04;37.72;98728.00;5045393;28;20143;-69
2022/10/19 07:25:13;;;;;;;35.78;19.38;;;;;;;33.07;35.15;98715.31;5044940;28;20153;-69
2022/10/19 07:28:08;;;;;;;29.70;19.08;;;;;;;33.32;37.94;98704.75;5000426;28;20062;-68
2022/10/19 07:31:09;;;;;;;44.45;21.23;;;;;;;33.01;38.18;98711.22;4924002;28;20630;-70
2022/10/19 07:34:12;;;;;;;36.65;20.05;;;;;;;32.86;37.23;98705.34;5040885;28;20045;-71
2022/10/19 07:37:11;;;;;;;36.50;20.87;;;;;;;33.11;37.46;98689.22;5029815;28;20064;-69
2022/10/19 07:40:15;;;;;;;39.00;20.58;;;;;;;32.73;37.26;98684.41;5029008;28;20373;-72
2022/10/19 07:43:02;;;;;;;37.53;20.63;;;;;;;33.03;37.56;98686.66;4931428;28;20060;-70
2022/10/19 07:46:12;;;;;;;36.28;21.30;;;;;;;33.00;39.09;98671.50;5009067;28;20049;-71
2022/10/19 07:49:01;;;;;;;37.08;21.00;;;;;;;33.06;38.23;98672.81;4923552;28;20146;-71
2022/10/19 07:52:01;;;;;;;47.42;22.27;;;;;;;32.63;37.10;98662.75;5008965;28;20421;-70
2022/10/19 07:54:55;;;;;;;46.50;21.92;;;;;;;32.33;38.38;98664.03;4922795;28;20059;-70
2022/10/19 07:58:00;;;;;;;42.75;22.65;;;;;;;32.68;37.51;98648.56;5008990;28;20074;-70
2022/10/19 08:00:49;;;;;;;36.40;21.63;;;;;;;32.89;38.39;98654.59;4977126;28;20059;-71
2022/10/19 08:03:59;;;;;;;42.13;22.42;;;;;;;32.48;37.79;98644.91;5015254;28;20049;-69
2022/10/19 08:06:53;;;;;;;42.35;22.08;;;;;;;32.40;37.09;98638.38;5022857;28;20103;-71
2022/10/19 08:09:48;;;;;;;40.80;22.25;;;;;;;32.48;36.83;98640.16;5023612;28;20463;-71
2022/10/19 08:13:00;;;;;;;39.00;21.98;;;;;;;32.51;36.76;98635.88;4944502;28;20791;-73
2022/10/19 08:16:00;;;;;;;41.92;22.23;;;;;;;32.11;35.59;98625.81;4938036;28;20057;-70
2022/10/19 08:19:11;;;;;;;37.67;21.42;;;;;;;32.75;38.65;98620.91;5025367;28;20065;-71
2022/10/19 08:21:50;;;;;;;40.92;23.05;;;;;;;32.56;37.44;98613.34;5009439;28;20047;-71
2022/10/19 08:24:51;;;;;;;37.65;22.98;;;;;;;32.88;36.42;98614.06;5024774;28;20049;-71
2022/10/19 08:27:44;;;;;;;51.53;24.00;;;;;;;32.48;37.48;98606.81;5011446;28;20060;-69
2022/10/19 08:30:46;;;;;;;45.88;24.48;;;;;;;32.56;36.64;98605.84;5010468;28;20142;-71
2022/10/19 08:33:57;;;;;;;50.00;23.20;;;;;;;32.42;36.29;98604.69;5021259;28;20053;-71
2022/10/19 08:36:57;;;;;;;43.78;22.05;;;;;;;32.46;36.42;98594.47;5012628;28;20150;-71
2022/10/19 08:40:24;;;;;;;41.85;24.15;;;;;;;32.32;35.23;98592.19;5022811;28;20045;-70
2022/10/19 08:43:40;;;;;;;45.05;23.38;;;;;;;32.28;35.64;98585.75;5022880;28;20059;-71
2022/10/19 08:46:42;;;;;;;38.03;22.55;;;;;;;32.78;36.99;98586.84;4989780;28;20050;-68
2022/10/19 08:49:32;;;;;;;36.75;21.45;;;;;;;32.72;35.25;98580.00;4986277;28;20046;-68
2022/10/19 08:52:25;;;;;;;47.42;21.85;;;;;;;32.94;35.69;98581.22;4993012;28;20041;-70
2022/10/19 08:55:25;;;;;;;36.75;21.17;;;;;;;32.69;34.42;98567.59;5008008;28;20060;-69
2022/10/19 08:58:30;;;;;;;;;;;;;;;32.65;33.06;98577.06;4959396;28;20049;-71
2022/10/19 09:01:49;;;;;;;37.28;19.52;;;;;;;32.95;33.26;98572.50;5021477;28;19925;-70
2022/10/19 09:04:41;;;;;;;42.72;22.38;;;;;;;32.66;32.96;98562.00;5014620;28;20068;-71
2022/10/19 09:07:54;;;;;;;41.17;21.92;;;;;;;32.82;34.39;98559.94;5000534;28;20056;-69
2022/10/19 09:10:46;;;;;;;38.85;23.92;;;;;;;32.99;34.49;98557.88;5021424;28;20057;-69
2022/10/19 09:13:55;;;;;;;39.00;23.00;;;;;;;32.91;34.24;98549.41;4997463;28;20063;-69
2022/10/19 09:16:47;;;;;;;46.03;24.52;;;;;;;32.81;33.33;98540.84;4966899;28;20063;-69
2022/10/19 09:19:42;;;;;;;42.25;25.35;;;;;;;32.81;33.57;98540.84;5040437;28;20053;-72
2022/10/19 09:22:38;;;;;;;46.63;26.67;;;;;;;32.71;33.21;98533.91;5021878;28;20060;-71
2022/10/19 09:25:32;;;;;;;47.30;24.38;;;;;;;32.51;32.62;98535.88;5016865;28;20053;-72
2022/10/19 09:28:45;;;;;;;40.22;23.52;;;;;;;32.07;32.81;98528.56;5041931;28;20049;-70
2022/10/19 09:31:39;;;;;;;43.35;22.80;;;;;;;32.53;33.66;98520.44;5035810;28;20373;-71
2022/10/19 09:34:40;;;;;;;37.95;23.45;;;;;;;32.56;33.59;98518.88;5030012;28;20052;-71
2022/10/19 09:37:46;;;;;;;49.35;26.08;;;;;;;32.53;32.54;98514.88;5026199;28;20472;-71
2022/10/19 09:40:42;;;;;;;49.90;26.17;;;;;;;32.39;32.94;98509.84;5039617;28;20772;-72
2022/10/19 09:43:33;;;;;;;45.95;25.15;;;;;;;32.43;34.87;98507.13;4970277;28;20066;-70
2022/10/19 09:46:51;;;;;;;49.17;25.60;;;;;;;32.44;32.51;98510.72;5020121;28;20048;-72
2022/10/19 09:49:53;;;;;;;46.15;26.88;;;;;;;32.22;33.08;98512.22;5020770;28;20174;-70
2022/10/19 09:53:05;;;;;;;58.13;30.20;;;;;;;32.24;33.80;98502.38;4937402;28;20217;-69
2022/10/19 09:56:12;;;;;;;56.58;30.92;;;;;;;32.40;33.71;98496.75;5010912;28;20057;-70
2022/10/19 09:59:22;;;;;;;61.10;32.65;;;;;;;32.24;34.21;98504.34;5040742;28;20041;-68
2022/10/19 10:02:34;;;;;;;68.35;33.67;;;;;;;32.18;34.82;98487.16;5027164;28;20373;-69
2022/10/19 10:05:54;;;;;;;71.20;35.97;;;;;;;32.24;33.85;98490.47;4988662;28;20079;-71
2022/10/19 10:08:56;;;;;;;68.60;38.10;;;;;;;32.30;34.75;98486.22;4990487;28;20063;-69
2022/10/19 10:12:07;;;;;;;61.80;33.80;;;;;;;32.22;33.61;98482.50;4991445;28;20048;-70
2022/10/19 10:14:58;;;;;;;58.78;34.15;;;;;;;32.12;33.26;98483.03;5027585;28;20057;-69
2022/10/19 10:17:58;;;;;;;59.17;34.63;;;;;;;32.04;34.40;98481.28;5025093;28;20061;-70
2022/10/19 10:21:05;;;;;;;54.10;32.22;;;;;;;32.21;32.40;98480.88;5024997;28;20053;-69
2022/10/19 10:24:11;;;;;;;65.32;33.80;;;;;;;32.13;33.29;98477.13;4997108;28;20049;-70
2022/10/19 10:26:58;;;;;;;65.88;33.50;;;;;;;32.10;33.85;98474.28;4947686;28;20551;-69
2022/10/19 10:29:56;;;;;;;72.07;35.85;;;;;;;32.19;35.27;98477.66;5010918;28;20057;-70
2022/10/19 10:32:54;;;;;;;64.10;39.35;;;;;;;31.89;38.72;98477.34;5022395;28;20149;-69
2022/10/19 10:36:03;;;;;;;66.97;39.85;;;;;;;31.91;39.06;98472.25;5013725;28;20562;-71
2022/10/19 10:39:14;;;;;;;74.30;41.80;;;;;;;31.89;38.88;98466.25;5023835;28;20122;-69
2022/10/19 10:42:09;;;;;;;79.18;42.28;;;;;;;31.71;40.81;98463.09;5012705;28;20527;-68
2022/10/19 10:45:06;;;;;;;83.07;43.35;;;;;;;31.62;41.45;98466.03;5022298;28;20049;-68
2022/10/19 10:48:16;;;;;;;89.20;45.78;;;;;;;31.44;41.28;98464.81;4994781;28;20049;-69
2022/10/19 10:51:54;;;;;;;86.40;44.78;;;;;;;31.66;41.76;98463.34;5005376;28;20384;-69
2022/10/19 10:54:59;;;;;;;74.18;43.53;;;;;;;31.21;41.03;98457.91;4956347;28;20062;-70
2022/10/19 10:58:24;;;;;;;72.03;41.38;;;;;;;31.50;41.07;98468.94;5005102;28;20265;-69
2022/10/19 11:01:32;;;;;;;76.72;44.15;;;;;;;31.22;41.83;98461.47;5022306;28;20048;-71
2022/10/19 11:04:47;;;;;;;77.25;42.88;;;;;;;31.26;41.56;98462.41;4975618;28;20045;-70
2022/10/19 11:08:40;;;;;;;79.72;41.30;;;;;;;31.26;40.96;98459.63;5020736;28;20049;-69
2022/10/19 11:11:49;;;;;;;71.82;41.00;;;;;;;31.17;41.56;98459.78;5020895;28;20566;-69
2022/10/19 11:15:03;;;;;;;87.20;43.50;;;;;;;30.71;41.88;98455.78;5023890;28;20064;-69
2022/10/19 11:18:39;;;;;;;72.82;42.95;;;;;;;31.21;41.40;98457.91;5021788;28;20049;-70
2022/10/19 11:21:50;;;;;;;82.63;44.28;;;;;;;31.17;43.01;98453.44;5020778;28;20060;-68
2022/10/19 11:25:07;;;;;;;85.60;44.90;;;;;;;31.05;41.58;98448.81;5004902;28;20136;-69
2022/10/19 11:28:09;;;;;;;84.60;45.28;;;;;;;31.14;41.92;98438.31;5001510;28;20046;-68
2022/10/19 11:31:49;;;;;;;90.95;45.35;;;;;;;30.93;44.12;98446.91;5021283;28;20053;-68
2022/10/19 11:35:01;;;;;;;82.65;43.40;;;;;;;30.87;42.72;98442.75;5004937;28;20041;-71
2022/10/19 11:38:23;;;;;;;97.13;44.60;;;;;;;30.48;42.34;98445.28;5001193;28;20519;-70
2022/10/19 11:41:28;;;;;;;88.43;44.17;;;;;;;30.68;44.19;98439.88;5027151;28;20052;-70
2022/10/19 11:44:44;;;;;;;86.68;43.55;;;;;;;30.58;43.50;98436.44;5001235;28;20066;-68
2022/10/19 11:48:05;;;;;;;79.53;43.10;;;;;;;30.54;41.45;98446.63;5023322;28;20060;-69
2022/10/19 11:51:08;;;;;;;70.60;41.70;;;;;;;30.50;45.26;98448.50;5008305;28;20129;-69
2022/10/19 11:54:31;;;;;;;77.57;42.05;;;;;;;30.36;45.69;98445.31;5011921;28;20503;-69
2022/10/19 11:57:36;;;;;;;80.55;43.05;;;;;;;30.28;45.46;98444.28;5020402;28;20160;-70
2022/10/19 12:00:35;;;;;;;78.25;41.42;;;;;;;30.23;44.99;98441.78;5022311;28;20064;-70
2022/10/19 12:03:32;;;;;;;76.53;41.83;;;;;;;30.10;46.54;98440.22;5021574;28;20049;-69
2022/10/19 12:07:02;;;;;;;73.40;39.20;;;;;;;30.01;44.88;98441.13;4999582;28;20049;-69
2022/10/19 12:10:26;;;;;;;77.07;40.60;;;;;;;29.82;46.46;98441.75;5004406;28;20054;-72
2022/10/19 12:13:59;;;;;;;73.07;40.63;;;;;;;29.70;45.64;98438.19;4948879;28;20049;-70
2022/10/19 12:17:07;;;;;;;84.40;39.40;;;;;;;29.57;47.41;98432.66;5019941;28;20058;-70
2022/10/19 12:20:35;;;;;;;73.20;41.50;;;;;;;29.50;46.19;98437.16;5017034;28;20037;-70
2022/10/19 12:23:46;;;;;;;78.93;40.67;;;;;;;29.60;44.50;98439.47;5016844;28;20050;-69
2022/10/19 12:26:50;;;;;;;81.72;39.92;;;;;;;29.63;44.68;98438.75;5004534;28;20058;-72
2022/10/19 12:29:49;;;;;;;77.38;40.67;;;;;;;29.42;44.93;98442.47;5018933;28;20447;-71
2022/10/19 12:33:04;;;;;;;74.72;40.75;;;;;;;29.48;46.57;98446.63;4993887;28;20073;-70
2022/10/19 12:36:55;;;;;;;83.15;42.17;;;;;;;29.44;47.07;98451.22;5007459;28;20053;-68
2022/10/19 12:40:04;;;;;;;84.15;43.20;;;;;;;29.38;47.38;98457.31;4940113;28;20055;-70
2022/10/19 12:44:02;;;;;;;73.50;40.80;;;;;;;29.15;49.48;98468.03;5005318;28;20057;-69
2022/10/19 12:47:21;;;;;;;78.57;41.33;;;;;;;29.13;49.15;98464.78;5009177;28;20060;-68
2022/10/19 12:51:01;;;;;;;71.88;41.80;;;;;;;29.06;49.92;98476.38;5004513;28;20060;-71
2022/10/19 12:54:06;;;;;;;75.15;42.72;;;;;;;28.81;50.88;98487.34;5021054;28;20057;-70
2022/10/19 12:57:08;;;;;;;72.18;42.83;;;;;;;28.69;50.98;98490.09;5007756;28;20280;-68
2022/10/19 13:00:42;;;;;;;85.97;46.60;;;;;;;28.67;51.37;98490.44;5006590;28;20536;-66
2022/10/19 13:03:35;;;;;;;97.38;47.53;;;;;;;28.40;51.63;98500.06;5023104;28;20055;-68
2022/10/19 13:06:56;;;;;;;90.97;47.63;;;;;;;28.38;53.38;98498.78;5010092;28;20468;-69
2022/10/19 13:09:44;;;;;;;87.10;48.25;;;;;;;28.29;52.75;98507.13;4980825;28;20052;-69
2022/10/19 13:12:52;;;;;;;93.40;49.55;;;;;;;28.33;53.22;98515.53;5002245;28;20045;-69
2022/10/19 13:16:03;;;;;;;105.75;49.88;;;;;;;28.21;52.64;98511.56;5011813;28;20495;-69
2022/10/19 13:19:06;;;;;;;99.85;49.25;;;;;;;28.12;53.38;98516.34;5035199;28;20041;-69
2022/10/19 13:22:20;;;;;;;90.78;48.38;;;;;;;28.09;53.61;98522.53;5022694;28;20049;-69
2022/10/19 13:25:27;;;;;;;100.53;48.65;;;;;;;28.07;53.72;98522.88;5057273;28;20187;-69
2022/10/19 13:28:51;;;;;;;88.47;49.80;;;;;;;28.06;53.59;98532.28;5057731;28;20045;-68
2022/10/19 13:31:55;;;;;;;95.38;49.35;;;;;;;27.97;53.95;98539.00;5023098;28;20128;-69
2022/10/19 13:35:24;;;;;;;97.43;49.80;;;;;;;27.94;54.84;98542.44;5030466;28;20059;-69
2022/10/19 13:38:41;;;;;;;99.38;50.00;;;;;;;27.84;54.97;98552.69;5015478;28;20110;-69
2022/10/19 13:41:51;;;;;;;108.40;53.03;;;;;;;27.80;55.49;98554.47;5069354;28;20084;-69
2022/10/19 13:44:54;;;;;;;109.57;53.28;;;;;;;27.84;55.64;98557.34;5068176;28;20147;-69
2022/10/19 13:47:48;;;;;;;114.95;56.83;;;;;;;27.71;56.14;98567.50;5053231;28;20151;-70
2022/10/19 13:51:15;;;;;;;135.77;59.22;;;;;;;27.79;55.48;98563.88;5041387;28;20041;-69
2022/10/19 13:54:42;;;;;;;107.68;58.78;;;;;;;27.76;55.99;98556.25;5043185;28;20477;-69
2022/10/19 13:58:48;;;;;;;118.38;57.20;;;;;;;27.75;55.96;98565.69;5058547;28;20053;-70
2022/10/19 14:02:23;;;;;;;124.80;57.47;;;;;;;27.73;56.74;98571.53;5057039;28;20048;-69
2022/10/19 14:05:52;;;;;;;121.28;60.35;;;;;;;27.65;56.85;98571.56;5058005;28;20049;-69